createdAt,value
2023-01-27T00:00:27.838Z,90.49
2023-01-27T00:01:24.592Z,90.52
2023-01-27T00:02:21.313Z,90.88
2023-01-27T00:03:18.393Z,90.71
2023-01-27T00:04:15.032Z,90.93
2023-01-27T00:05:13.700Z,91.44
2023-01-27T00:06:12.015Z,91.25
2023-01-27T00:07:08.602Z,91.25
2023-01-27T00:08:05.378Z,91.44
2023-01-27T00:09:02.000Z,91.71
2023-01-27T00:09:58.549Z,91.69
2023-01-27T00:11:19.966Z,91.37
2023-01-27T00:12:41.178Z,91.41
2023-01-27T00:13:37.916Z,91.26
2023-01-27T00:14:34.471Z,91.51
2023-01-27T00:15:32.117Z,90.74
2023-01-27T00:16:28.830Z,90.74
2023-01-27T00:17:25.511Z,90.94
2023-01-27T00:18:23.603Z,90.66
2023-01-27T00:19:20.253Z,90.55
2023-01-27T00:20:35.451Z,90.76
2023-01-27T00:21:50.329Z,90.82
2023-01-27T00:23:19.098Z,91.44
2023-01-27T00:24:34.646Z,91.08
2023-01-27T00:25:31.957Z,90.79
2023-01-27T00:26:28.578Z,91.16
2023-01-27T00:27:27.246Z,91.33
2023-01-27T00:28:25.586Z,90.72
2023-01-27T00:29:22.304Z,91.15
2023-01-27T00:30:18.962Z,90.92
2023-01-27T00:31:36.575Z,91.40
2023-01-27T00:32:52.119Z,91.00
2023-01-27T00:33:49.573Z,91.06
2023-01-27T00:34:46.500Z,90.72
2023-01-27T00:35:43.099Z,91.27
2023-01-27T00:36:42.020Z,91.69
2023-01-27T00:37:38.657Z,91.63
2023-01-27T00:38:42.030Z,91.66
2023-01-27T00:39:38.997Z,91.67
2023-01-27T00:40:35.613Z,91.88
2023-01-27T00:41:33.997Z,91.74
2023-01-27T00:42:30.609Z,91.55
2023-01-27T00:43:27.160Z,91.76
2023-01-27T00:44:24.022Z,92.04
2023-01-27T00:45:39.459Z,92.25
2023-01-27T00:46:36.060Z,92.05
2023-01-27T00:47:33.965Z,91.99
2023-01-27T00:48:30.978Z,92.31
2023-01-27T00:49:27.705Z,91.82
2023-01-27T00:50:24.732Z,92.10
2023-01-27T00:51:21.661Z,91.86
2023-01-27T00:52:18.318Z,91.75
2023-01-27T00:53:15.017Z,91.38
2023-01-27T00:54:11.735Z,91.67
2023-01-27T00:55:08.995Z,91.77
2023-01-27T00:56:06.173Z,91.45
2023-01-27T00:57:04.441Z,91.23
2023-01-27T00:58:01.092Z,90.66
2023-01-27T00:58:57.693Z,90.39
2023-01-27T00:59:54.338Z,90.47
2023-01-27T01:00:53.579Z,90.23
2023-01-27T01:01:50.232Z,90.33
2023-01-27T01:02:46.934Z,89.57
2023-01-27T01:03:44.613Z,89.73
2023-01-27T01:04:41.246Z,90.20
2023-01-27T01:05:38.020Z,90.10
2023-01-27T01:06:34.729Z,90.08
2023-01-27T01:07:31.292Z,90.52
2023-01-27T01:08:29.958Z,90.56
2023-01-27T01:09:26.756Z,90.28
2023-01-27T01:10:23.460Z,90.20
2023-01-27T01:11:21.463Z,90.27
2023-01-27T01:12:18.171Z,90.10
2023-01-27T01:13:14.891Z,89.73
2023-01-27T01:14:11.522Z,89.94
2023-01-27T01:15:08.958Z,89.84
2023-01-27T01:16:12.970Z,90.11
2023-01-27T01:17:09.759Z,90.39
2023-01-27T01:18:09.201Z,90.19
2023-01-27T01:19:05.802Z,89.68
2023-01-27T01:20:02.568Z,89.98
2023-01-27T01:20:59.241Z,90.01
2023-01-27T01:21:55.875Z,90.24
2023-01-27T01:22:52.474Z,90.30
2023-01-27T01:23:49.111Z,89.97
2023-01-27T01:24:45.960Z,89.90
2023-01-27T01:25:42.733Z,89.89
2023-01-27T01:26:39.330Z,90.04
2023-01-27T01:27:35.969Z,90.27
2023-01-27T01:28:33.133Z,89.46
2023-01-27T01:29:29.878Z,89.74
2023-01-27T01:30:27.532Z,89.51
2023-01-27T01:31:24.200Z,89.52
2023-01-27T01:32:20.928Z,89.53
2023-01-27T01:33:17.710Z,89.92
2023-01-27T01:34:14.264Z,89.80
2023-01-27T01:35:10.908Z,90.05
2023-01-27T01:36:09.756Z,89.37
2023-01-27T01:37:06.437Z,89.71
2023-01-27T01:38:03.037Z,89.60
2023-01-27T01:38:59.642Z,89.79
2023-01-27T01:39:56.300Z,89.74
2023-01-27T01:40:52.873Z,90.17
2023-01-27T01:41:49.459Z,90.41
2023-01-27T01:43:08.787Z,90.90
2023-01-27T01:44:27.299Z,92.08
2023-01-27T01:45:48.906Z,92.85
2023-01-27T01:46:45.533Z,92.73
2023-01-27T01:47:42.137Z,93.19
2023-01-27T01:48:43.191Z,93.62
2023-01-27T01:49:40.979Z,93.87
2023-01-27T01:50:40.830Z,93.79
2023-01-27T01:51:41.980Z,94.29
2023-01-27T01:52:38.576Z,94.41
2023-01-27T01:53:42.013Z,94.72
2023-01-27T01:54:48.423Z,94.72
2023-01-27T01:55:46.640Z,95.08
2023-01-27T01:57:04.568Z,94.90
2023-01-27T01:58:02.619Z,94.88
2023-01-27T01:59:05.274Z,95.60
2023-01-27T02:00:07.901Z,95.37
2023-01-27T02:01:05.809Z,95.52
2023-01-27T02:02:07.705Z,95.78
2023-01-27T02:03:04.684Z,95.60
2023-01-27T02:04:04.739Z,96.17
2023-01-27T02:05:06.817Z,96.24
2023-01-27T02:06:05.031Z,96.12
2023-01-27T02:07:13.501Z,96.21
2023-01-27T02:08:27.529Z,95.98
2023-01-27T02:09:24.717Z,96.61
2023-01-27T02:10:21.402Z,96.28
2023-01-27T02:11:18.637Z,96.53
2023-01-27T02:12:15.360Z,96.66
2023-01-27T02:13:12.342Z,97.00
2023-01-27T02:14:11.180Z,96.51
2023-01-27T02:15:10.123Z,97.17
2023-01-27T02:16:08.356Z,96.65
2023-01-27T02:17:05.781Z,96.84
2023-01-27T02:18:03.545Z,96.76
2023-01-27T02:19:00.137Z,96.71
2023-01-27T02:20:14.757Z,96.78
2023-01-27T02:21:11.521Z,96.63
2023-01-27T02:22:13.861Z,96.95
2023-01-27T02:23:27.907Z,96.82
2023-01-27T02:24:32.599Z,96.33
2023-01-27T02:25:35.059Z,96.26
2023-01-27T02:26:33.657Z,96.81
2023-01-27T02:27:30.306Z,96.32
2023-01-27T02:28:29.246Z,96.26
2023-01-27T02:29:25.908Z,96.03
2023-01-27T02:30:22.669Z,96.28
2023-01-27T02:31:19.443Z,96.26
2023-01-27T02:32:26.499Z,96.48
2023-01-27T02:33:23.678Z,96.34
2023-01-27T02:34:24.837Z,96.29
2023-01-27T02:35:42.271Z,96.32
2023-01-27T02:36:51.584Z,96.41
2023-01-27T02:37:49.995Z,97.05
2023-01-27T02:38:55.641Z,97.04
2023-01-27T02:39:54.054Z,96.48
2023-01-27T02:40:53.567Z,97.27
2023-01-27T02:41:53.181Z,96.77
2023-01-27T02:42:50.022Z,97.40
2023-01-27T02:43:48.773Z,97.37
2023-01-27T02:44:45.506Z,97.01
2023-01-27T02:45:42.260Z,97.03
2023-01-27T02:46:38.997Z,97.20
2023-01-27T02:47:35.715Z,96.99
2023-01-27T02:48:32.412Z,97.04
2023-01-27T02:49:29.003Z,97.33
2023-01-27T02:50:25.591Z,97.21
2023-01-27T02:51:22.691Z,96.95
2023-01-27T02:52:19.288Z,97.14
2023-01-27T02:53:15.886Z,97.49
2023-01-27T02:54:12.724Z,97.05
2023-01-27T02:55:10.010Z,97.28
2023-01-27T02:56:07.232Z,97.06
2023-01-27T02:57:03.901Z,97.07
2023-01-27T02:58:00.494Z,96.83
2023-01-27T02:58:57.128Z,96.16
2023-01-27T02:59:53.754Z,96.08
2023-01-27T03:00:50.360Z,96.77
2023-01-27T03:01:47.035Z,96.60
2023-01-27T03:02:43.923Z,96.34
2023-01-27T03:03:49.416Z,96.77
2023-01-27T03:04:46.102Z,97.17
2023-01-27T03:05:42.812Z,97.03
2023-01-27T03:06:39.603Z,96.88
2023-01-27T03:07:36.211Z,97.06
2023-01-27T03:08:32.902Z,96.93
2023-01-27T03:09:29.451Z,97.18
2023-01-27T03:10:26.134Z,96.67
2023-01-27T03:11:41.250Z,96.91
2023-01-27T03:12:37.839Z,97.26
2023-01-27T03:13:34.626Z,97.11
2023-01-27T03:14:49.562Z,97.31
2023-01-27T03:16:04.799Z,97.05
2023-01-27T03:17:19.559Z,97.64
2023-01-27T03:18:16.327Z,97.22
2023-01-27T03:19:12.920Z,97.56
2023-01-27T03:20:10.331Z,96.84
2023-01-27T03:21:07.497Z,97.27
2023-01-27T03:22:04.124Z,96.91
2023-01-27T03:23:00.840Z,96.97
2023-01-27T03:23:57.932Z,97.53
2023-01-27T03:24:54.558Z,97.41
2023-01-27T03:25:51.179Z,98.10
2023-01-27T03:26:47.981Z,98.00
2023-01-27T03:27:44.960Z,97.60
2023-01-27T03:28:41.651Z,97.62
2023-01-27T03:29:56.072Z,97.12
2023-01-27T03:30:58.585Z,97.42
2023-01-27T03:31:55.356Z,97.42
2023-01-27T03:32:52.214Z,97.74
2023-01-27T03:33:48.911Z,97.37
2023-01-27T03:34:45.638Z,97.98
2023-01-27T03:35:48.357Z,98.05
2023-01-27T03:37:03.527Z,97.62
2023-01-27T03:38:20.380Z,98.16
2023-01-27T03:39:35.366Z,97.84
2023-01-27T03:40:50.371Z,98.53
2023-01-27T03:42:05.336Z,98.22
2023-01-27T03:43:21.196Z,98.10
2023-01-27T03:44:36.247Z,98.54
2023-01-27T03:45:51.346Z,98.66
2023-01-27T03:46:48.837Z,99.36
2023-01-27T03:47:45.555Z,99.15
2023-01-27T03:48:42.542Z,99.51
2023-01-27T03:49:39.269Z,99.16
2023-01-27T03:50:43.877Z,99.05
2023-01-27T03:51:40.793Z,99.30
2023-01-27T03:52:37.943Z,99.65
2023-01-27T03:53:35.679Z,99.20
2023-01-27T03:54:32.423Z,99.53
2023-01-27T03:55:33.594Z,99.81
2023-01-27T03:56:30.259Z,99.45
2023-01-27T03:57:26.918Z,99.49
2023-01-27T03:58:31.878Z,99.29
2023-01-27T03:59:28.567Z,98.95
2023-01-27T04:00:25.211Z,99.05
2023-01-27T04:01:24.105Z,98.76
2023-01-27T04:02:39.413Z,98.13
2023-01-27T04:03:54.987Z,98.30
2023-01-27T04:05:09.858Z,97.19
2023-01-27T04:06:28.727Z,97.49
2023-01-27T04:07:25.349Z,97.15
2023-01-27T04:08:22.135Z,97.00
2023-01-27T04:09:25.231Z,97.39
2023-01-27T04:10:21.805Z,97.56
2023-01-27T04:11:36.955Z,97.68
2023-01-27T04:12:33.630Z,97.64
2023-01-27T04:13:30.248Z,97.46
2023-01-27T04:14:38.281Z,97.14
2023-01-27T04:15:34.877Z,97.16
2023-01-27T04:16:32.126Z,97.14
2023-01-27T04:17:30.753Z,97.10
2023-01-27T04:18:27.366Z,97.65
2023-01-27T04:19:25.892Z,97.60
2023-01-27T04:20:23.610Z,96.96
2023-01-27T04:21:20.243Z,97.17
2023-01-27T04:22:17.141Z,97.27
2023-01-27T04:23:13.730Z,97.08
2023-01-27T04:24:22.724Z,97.59
2023-01-27T04:25:19.622Z,97.07
2023-01-27T04:26:16.309Z,96.94
2023-01-27T04:27:15.670Z,97.26
2023-01-27T04:28:12.310Z,97.36
2023-01-27T04:29:08.931Z,97.57
2023-01-27T04:30:06.121Z,97.55
2023-01-27T04:31:02.729Z,97.59
2023-01-27T04:31:59.337Z,97.29
2023-01-27T04:32:55.928Z,97.10
2023-01-27T04:33:52.911Z,97.62
2023-01-27T04:34:49.528Z,97.90
2023-01-27T04:35:46.624Z,97.82
2023-01-27T04:36:43.709Z,98.14
2023-01-27T04:37:40.328Z,97.89
2023-01-27T04:38:36.995Z,97.49
2023-01-27T04:39:34.788Z,97.43
2023-01-27T04:40:31.386Z,97.40
2023-01-27T04:41:28.348Z,97.46
2023-01-27T04:42:24.928Z,98.05
2023-01-27T04:43:21.768Z,97.73
2023-01-27T04:44:22.031Z,98.25
2023-01-27T04:45:18.646Z,97.35
2023-01-27T04:46:15.290Z,97.36
2023-01-27T04:47:11.847Z,97.36
2023-01-27T04:48:08.472Z,97.04
2023-01-27T04:49:06.353Z,97.23
2023-01-27T04:50:03.040Z,96.61
2023-01-27T04:50:59.591Z,96.28
2023-01-27T04:51:56.339Z,96.20
2023-01-27T04:52:52.988Z,95.96
2023-01-27T04:53:49.764Z,95.61
2023-01-27T04:54:46.340Z,95.36
2023-01-27T04:55:47.359Z,95.32
2023-01-27T04:56:56.837Z,95.84
2023-01-27T04:57:53.752Z,95.56
2023-01-27T04:58:50.468Z,96.12
2023-01-27T04:59:47.047Z,96.71
2023-01-27T05:00:45.121Z,97.17
2023-01-27T05:01:41.890Z,97.36
2023-01-27T05:02:38.506Z,97.86
2023-01-27T05:03:35.155Z,98.20
2023-01-27T05:04:32.479Z,98.44
2023-01-27T05:05:29.137Z,98.65
2023-01-27T05:06:26.924Z,98.87
2023-01-27T05:07:23.742Z,98.60
2023-01-27T05:08:20.664Z,98.97
2023-01-27T05:09:17.261Z,98.62
2023-01-27T05:10:13.874Z,99.15
2023-01-27T05:11:11.711Z,99.26
2023-01-27T05:12:08.536Z,98.89
2023-01-27T05:13:05.121Z,98.70
2023-01-27T05:14:01.751Z,99.14
2023-01-27T05:14:59.902Z,98.60
2023-01-27T05:16:09.977Z,99.48
2023-01-27T05:17:06.607Z,98.66
2023-01-27T05:18:03.339Z,98.52
2023-01-27T05:18:59.994Z,99.29
2023-01-27T05:19:56.522Z,99.28
2023-01-27T05:20:53.178Z,99.07
2023-01-27T05:21:49.829Z,98.61
2023-01-27T05:22:46.528Z,98.56
2023-01-27T05:23:43.714Z,98.62
2023-01-27T05:24:40.319Z,98.74
2023-01-27T05:25:36.951Z,98.78
2023-01-27T05:26:33.582Z,98.63
2023-01-27T05:27:30.156Z,98.48
2023-01-27T05:28:28.291Z,98.48
2023-01-27T05:29:25.041Z,98.33
2023-01-27T05:30:21.663Z,98.10
2023-01-27T05:31:24.241Z,98.04
2023-01-27T05:32:20.893Z,98.10
2023-01-27T05:33:17.492Z,97.73
2023-01-27T05:34:14.325Z,97.63
2023-01-27T05:35:11.299Z,97.48
2023-01-27T05:36:11.371Z,96.59
2023-01-27T05:37:07.942Z,96.69
2023-01-27T05:38:04.612Z,97.03
2023-01-27T05:39:01.365Z,97.02
2023-01-27T05:39:59.481Z,96.54
2023-01-27T05:41:02.108Z,97.10
2023-01-27T05:41:58.892Z,97.23
2023-01-27T05:42:55.518Z,96.83
2023-01-27T05:43:54.257Z,96.85
2023-01-27T05:44:50.782Z,97.03
2023-01-27T05:45:47.364Z,96.91
2023-01-27T05:46:44.066Z,97.72
2023-01-27T05:47:40.665Z,97.27
2023-01-27T05:48:39.609Z,97.68
2023-01-27T05:49:36.244Z,97.75
2023-01-27T05:50:32.786Z,97.78
2023-01-27T05:51:31.378Z,97.84
2023-01-27T05:52:27.924Z,97.77
2023-01-27T05:53:24.942Z,97.86
2023-01-27T05:54:21.516Z,97.83
2023-01-27T05:55:18.066Z,97.39
2023-01-27T05:56:18.135Z,97.24
2023-01-27T05:57:14.750Z,97.47
2023-01-27T05:58:11.355Z,97.99
2023-01-27T05:59:08.509Z,97.79
2023-01-27T06:00:05.829Z,97.42
2023-01-27T06:01:35.388Z,98.03
2023-01-27T06:02:32.616Z,98.29
2023-01-27T06:03:29.249Z,98.26
2023-01-27T06:04:26.262Z,98.17
2023-01-27T06:05:22.844Z,98.30
2023-01-27T06:06:21.489Z,98.13
2023-01-27T06:07:18.254Z,98.49
2023-01-27T06:08:14.795Z,98.66
2023-01-27T06:09:11.532Z,98.18
2023-01-27T06:10:08.784Z,98.42
2023-01-27T06:11:06.850Z,98.18
2023-01-27T06:12:03.481Z,98.23
2023-01-27T06:13:00.808Z,98.23
2023-01-27T06:13:59.858Z,98.44
2023-01-27T06:14:59.555Z,97.99
2023-01-27T06:15:56.228Z,97.69
2023-01-27T06:16:53.709Z,98.03
2023-01-27T06:17:52.741Z,97.40
2023-01-27T06:18:49.571Z,97.40
2023-01-27T06:19:46.104Z,96.96
2023-01-27T06:20:43.022Z,96.96
2023-01-27T06:21:39.650Z,97.04
2023-01-27T06:22:36.328Z,96.89
2023-01-27T06:23:33.136Z,97.29
2023-01-27T06:24:29.846Z,96.88
2023-01-27T06:25:26.429Z,97.16
2023-01-27T06:26:22.998Z,97.01
2023-01-27T06:27:19.573Z,96.59
2023-01-27T06:28:28.887Z,96.85
2023-01-27T06:29:26.214Z,96.48
2023-01-27T06:30:23.432Z,96.37
2023-01-27T06:31:22.180Z,96.47
2023-01-27T06:32:18.939Z,96.31
2023-01-27T06:33:15.532Z,96.57
2023-01-27T06:34:12.510Z,97.05
2023-01-27T06:35:09.298Z,97.11
2023-01-27T06:36:09.333Z,96.62
2023-01-27T06:37:05.928Z,97.05
2023-01-27T06:38:04.530Z,96.69
2023-01-27T06:39:01.114Z,97.11
2023-01-27T06:39:57.754Z,96.87
2023-01-27T06:40:54.338Z,97.25
2023-01-27T06:41:50.970Z,96.81
2023-01-27T06:42:47.656Z,97.13
2023-01-27T06:43:44.317Z,96.89
2023-01-27T06:44:40.918Z,96.65
2023-01-27T06:45:37.498Z,96.97
2023-01-27T06:46:34.324Z,96.56
2023-01-27T06:47:30.932Z,96.40
2023-01-27T06:48:28.145Z,95.79
2023-01-27T06:49:24.923Z,95.63
2023-01-27T06:50:21.758Z,95.31
2023-01-27T06:51:18.312Z,94.99
2023-01-27T06:52:14.880Z,95.50
2023-01-27T06:53:11.881Z,95.69
2023-01-27T06:54:08.443Z,95.81
2023-01-27T06:55:05.701Z,96.18
2023-01-27T06:56:02.561Z,96.07
2023-01-27T06:56:59.143Z,96.40
2023-01-27T06:57:55.832Z,96.32
2023-01-27T06:58:52.450Z,96.66
2023-01-27T06:59:49.013Z,96.50
2023-01-27T07:00:45.711Z,96.48
2023-01-27T07:01:42.454Z,96.67
2023-01-27T07:02:39.146Z,96.46
2023-01-27T07:03:35.916Z,96.82
2023-01-27T07:04:32.562Z,96.69
2023-01-27T07:05:29.325Z,96.62
2023-01-27T07:06:26.052Z,96.68
2023-01-27T07:07:22.648Z,96.54
2023-01-27T07:08:19.214Z,96.26
2023-01-27T07:09:15.759Z,96.60
2023-01-27T07:10:12.640Z,96.62
2023-01-27T07:11:09.432Z,96.62
2023-01-27T07:12:06.095Z,96.79
2023-01-27T07:13:10.710Z,96.32
2023-01-27T07:14:09.639Z,96.26
2023-01-27T07:15:09.426Z,96.34
2023-01-27T07:16:06.516Z,96.58
2023-01-27T07:17:03.316Z,96.22
2023-01-27T07:18:01.251Z,96.61
2023-01-27T07:18:57.815Z,96.29
2023-01-27T07:19:54.415Z,96.18
2023-01-27T07:20:52.148Z,96.40
2023-01-27T07:21:48.692Z,95.86
2023-01-27T07:22:45.250Z,95.74
2023-01-27T07:23:41.822Z,95.85
2023-01-27T07:24:38.714Z,95.87
2023-01-27T07:25:35.577Z,95.48
2023-01-27T07:26:32.200Z,95.42
2023-01-27T07:27:29.651Z,95.02
2023-01-27T07:28:26.273Z,94.89
2023-01-27T07:29:22.984Z,94.93
2023-01-27T07:30:19.745Z,94.61
2023-01-27T07:31:16.448Z,94.44
2023-01-27T07:32:13.331Z,94.32
2023-01-27T07:33:11.894Z,94.29
2023-01-27T07:34:08.588Z,93.90
2023-01-27T07:35:05.618Z,94.24
2023-01-27T07:36:02.245Z,94.06
2023-01-27T07:37:00.032Z,93.72
2023-01-27T07:37:58.234Z,93.32
2023-01-27T07:38:54.776Z,92.91
2023-01-27T07:39:51.391Z,92.86
2023-01-27T07:40:48.003Z,93.44
2023-01-27T07:41:44.546Z,92.64
2023-01-27T07:42:41.661Z,92.69
2023-01-27T07:43:38.323Z,92.92
2023-01-27T07:44:34.868Z,93.01
2023-01-27T07:45:31.785Z,92.86
2023-01-27T07:46:28.342Z,92.49
2023-01-27T07:47:24.985Z,92.27
2023-01-27T07:48:21.647Z,92.55
2023-01-27T07:49:18.341Z,92.71
2023-01-27T07:50:15.350Z,92.81
2023-01-27T07:51:13.942Z,92.46
2023-01-27T07:52:10.635Z,92.56
2023-01-27T07:53:07.438Z,92.35
2023-01-27T07:54:05.125Z,92.17
2023-01-27T07:55:01.758Z,92.21
2023-01-27T07:56:01.449Z,92.16
2023-01-27T07:57:01.650Z,92.49
2023-01-27T07:57:58.275Z,92.73
2023-01-27T07:58:55.800Z,93.00
2023-01-27T07:59:55.739Z,93.27
2023-01-27T08:00:52.484Z,93.01
2023-01-27T08:01:49.098Z,93.27
2023-01-27T08:02:51.153Z,93.89
2023-01-27T08:03:47.757Z,94.00
2023-01-27T08:04:52.961Z,93.95
2023-01-27T08:05:50.949Z,93.82
2023-01-27T08:06:47.647Z,94.30
2023-01-27T08:07:45.514Z,94.16
2023-01-27T08:08:42.252Z,94.19
2023-01-27T08:09:38.837Z,93.87
2023-01-27T08:10:35.483Z,93.54
2023-01-27T08:11:32.280Z,93.50
2023-01-27T08:12:28.857Z,93.66
2023-01-27T08:13:25.520Z,93.40
2023-01-27T08:14:22.113Z,92.57
2023-01-27T08:15:19.316Z,92.17
2023-01-27T08:16:16.595Z,92.27
2023-01-27T08:17:13.247Z,91.95
2023-01-27T08:18:10.610Z,91.36
2023-01-27T08:19:07.260Z,90.54
2023-01-27T08:20:04.652Z,90.80
2023-01-27T08:21:03.922Z,91.06
2023-01-27T08:22:00.478Z,91.43
2023-01-27T08:22:59.182Z,92.07
2023-01-27T08:23:55.852Z,91.89
2023-01-27T08:24:52.524Z,91.96
2023-01-27T08:25:53.871Z,92.09
2023-01-27T08:26:50.500Z,91.97
2023-01-27T08:27:51.034Z,92.14
2023-01-27T08:28:47.719Z,92.04
2023-01-27T08:29:44.361Z,92.09
2023-01-27T08:30:41.037Z,91.80
2023-01-27T08:31:37.932Z,92.34
2023-01-27T08:32:35.141Z,92.18
2023-01-27T08:33:32.389Z,92.01
2023-01-27T08:34:28.989Z,92.48
2023-01-27T08:35:25.567Z,92.39
2023-01-27T08:36:23.430Z,92.37
2023-01-27T08:37:20.116Z,92.71
2023-01-27T08:38:18.841Z,92.35
2023-01-27T08:39:15.817Z,92.43
2023-01-27T08:40:13.179Z,92.88
2023-01-27T08:41:13.194Z,92.01
2023-01-27T08:42:09.765Z,91.35
2023-01-27T08:43:07.421Z,90.84
2023-01-27T08:44:04.173Z,90.54
2023-01-27T08:45:00.701Z,90.68
2023-01-27T08:45:58.137Z,91.19
2023-01-27T08:46:55.567Z,91.28
2023-01-27T08:47:52.116Z,91.67
2023-01-27T08:48:50.327Z,91.56
2023-01-27T08:49:48.011Z,91.43
2023-01-27T08:50:44.564Z,91.66
2023-01-27T08:51:42.436Z,91.95
2023-01-27T08:52:39.307Z,92.08
2023-01-27T08:53:37.081Z,92.33
2023-01-27T08:54:33.661Z,92.50
2023-01-27T08:55:32.331Z,92.33
2023-01-27T08:56:30.741Z,92.55
2023-01-27T08:57:27.437Z,92.74
2023-01-27T08:58:24.839Z,92.83
2023-01-27T08:59:21.517Z,93.04
2023-01-27T09:00:18.590Z,92.61
2023-01-27T09:01:16.127Z,92.98
2023-01-27T09:02:13.482Z,92.90
2023-01-27T09:03:10.145Z,93.23
2023-01-27T09:04:06.726Z,93.26
2023-01-27T09:05:03.686Z,93.05
2023-01-27T09:06:00.897Z,93.12
2023-01-27T09:06:57.845Z,93.31
2023-01-27T09:07:54.769Z,93.17
2023-01-27T09:09:11.695Z,92.88
2023-01-27T09:10:16.574Z,93.27
2023-01-27T09:11:17.814Z,92.91
2023-01-27T09:12:14.851Z,93.03
2023-01-27T09:13:11.634Z,92.70
2023-01-27T09:14:08.709Z,92.70
2023-01-27T09:15:05.726Z,92.72
2023-01-27T09:16:02.890Z,92.64
2023-01-27T09:16:59.689Z,92.66
2023-01-27T09:17:58.403Z,92.68
2023-01-27T09:18:55.371Z,92.35
2023-01-27T09:19:52.038Z,92.63
2023-01-27T09:20:48.680Z,92.56
2023-01-27T09:21:45.304Z,92.19
2023-01-27T09:22:42.325Z,92.09
2023-01-27T09:23:38.999Z,91.73
2023-01-27T09:24:35.605Z,91.98
2023-01-27T09:25:32.422Z,91.60
2023-01-27T09:26:28.976Z,91.14
2023-01-27T09:27:38.127Z,91.15
2023-01-27T09:28:35.576Z,91.00
2023-01-27T09:29:32.208Z,90.64
2023-01-27T09:30:29.356Z,90.87
2023-01-27T09:31:26.047Z,91.33
2023-01-27T09:32:22.751Z,91.35
2023-01-27T09:33:19.497Z,91.51
2023-01-27T09:34:17.887Z,91.23
2023-01-27T09:35:14.928Z,91.39
2023-01-27T09:36:15.683Z,91.41
2023-01-27T09:37:13.630Z,91.34
2023-01-27T09:38:12.200Z,91.82
2023-01-27T09:39:09.220Z,91.53
2023-01-27T09:40:28.821Z,91.53
2023-01-27T09:41:37.605Z,92.06
2023-01-27T09:42:40.226Z,92.13
2023-01-27T09:44:06.046Z,91.48
2023-01-27T09:45:26.112Z,91.48
2023-01-27T09:47:00.143Z,91.03
2023-01-27T09:48:23.276Z,90.90
2023-01-27T09:49:32.593Z,90.89
2023-01-27T09:50:57.837Z,90.49
2023-01-27T09:52:47.501Z,90.43
2023-01-27T09:54:03.226Z,90.52
2023-01-27T09:55:05.624Z,90.51
2023-01-27T09:56:09.183Z,90.75
2023-01-27T09:57:25.318Z,90.68
2023-01-27T09:58:40.554Z,90.08
2023-01-27T09:59:49.282Z,89.76
2023-01-27T10:00:59.815Z,90.04
2023-01-27T10:02:12.474Z,89.79
2023-01-27T10:03:26.910Z,89.75
2023-01-27T10:04:42.516Z,90.67
2023-01-27T10:05:48.081Z,91.38
2023-01-27T10:07:26.752Z,91.50
2023-01-27T10:08:38.655Z,91.80
2023-01-27T10:09:41.187Z,91.77
2023-01-27T10:10:40.530Z,92.01
2023-01-27T10:11:56.831Z,92.35
2023-01-27T10:13:07.064Z,92.72
2023-01-27T10:14:34.887Z,92.64
2023-01-27T10:16:03.269Z,92.46
2023-01-27T10:17:12.105Z,92.23
2023-01-27T10:18:29.008Z,92.37
2023-01-27T10:19:40.172Z,92.60
2023-01-27T10:20:46.253Z,92.68
2023-01-27T10:21:42.862Z,92.46
2023-01-27T10:22:45.377Z,91.71
2023-01-27T10:23:52.122Z,92.05
2023-01-27T10:25:18.003Z,92.25
2023-01-27T10:26:31.712Z,92.30
2023-01-27T10:27:37.064Z,92.37
2023-01-27T10:28:34.615Z,92.14
2023-01-27T10:29:45.561Z,92.64
2023-01-27T10:30:58.885Z,92.37
2023-01-27T10:32:20.436Z,92.60
2023-01-27T10:33:19.860Z,92.59
2023-01-27T10:34:22.485Z,92.87
2023-01-27T10:35:30.909Z,92.57
2023-01-27T10:36:52.405Z,93.01
2023-01-27T10:38:14.505Z,92.29
2023-01-27T10:39:31.707Z,92.39
2023-01-27T10:40:28.406Z,92.49
2023-01-27T10:41:44.913Z,92.02
2023-01-27T10:43:08.439Z,92.59
2023-01-27T10:44:04.995Z,92.78
2023-01-27T10:45:42.716Z,93.15
2023-01-27T10:46:48.417Z,92.72
2023-01-27T10:47:47.774Z,92.44
2023-01-27T10:48:44.324Z,92.16
2023-01-27T10:49:47.140Z,91.52
2023-01-27T10:50:50.276Z,91.51
2023-01-27T10:51:53.371Z,91.59
2023-01-27T10:52:55.823Z,91.78
2023-01-27T10:54:09.305Z,91.43
2023-01-27T10:55:22.611Z,92.08
2023-01-27T10:56:47.976Z,92.54
2023-01-27T10:58:01.906Z,92.45
2023-01-27T10:59:35.533Z,92.47
2023-01-27T11:01:09.093Z,92.57
2023-01-27T11:02:13.551Z,92.78
2023-01-27T11:03:15.524Z,92.84
2023-01-27T11:04:24.018Z,92.90
2023-01-27T11:05:28.731Z,92.87
2023-01-27T11:06:30.829Z,92.96
2023-01-27T11:07:27.708Z,93.23
2023-01-27T11:08:36.727Z,93.16
2023-01-27T11:09:49.275Z,93.19
2023-01-27T11:11:08.630Z,93.47
2023-01-27T11:12:12.715Z,92.90
2023-01-27T11:13:14.748Z,92.18
2023-01-27T11:14:31.102Z,92.11
2023-01-27T11:15:32.004Z,91.92
2023-01-27T11:16:35.469Z,92.41
2023-01-27T11:17:45.015Z,92.55
2023-01-27T11:18:43.335Z,92.58
2023-01-27T11:19:48.499Z,92.51
2023-01-27T11:20:49.560Z,91.94
2023-01-27T11:21:50.747Z,92.35
2023-01-27T11:23:10.242Z,92.16
2023-01-27T11:24:33.180Z,92.56
2023-01-27T11:25:43.079Z,92.45
2023-01-27T11:26:43.594Z,92.54
2023-01-27T11:28:18.941Z,92.28
2023-01-27T11:29:42.492Z,92.08
2023-01-27T11:31:02.696Z,92.43
2023-01-27T11:32:23.172Z,92.43
2023-01-27T11:33:40.665Z,92.37
2023-01-27T11:35:12.393Z,92.13
2023-01-27T11:36:09.987Z,91.20
2023-01-27T11:37:29.881Z,90.83
2023-01-27T11:38:26.538Z,91.12
2023-01-27T11:39:23.516Z,90.53
2023-01-27T11:40:27.939Z,90.75
2023-01-27T11:41:25.414Z,90.09
2023-01-27T11:42:22.949Z,89.92
2023-01-27T11:43:23.975Z,89.25
2023-01-27T11:44:34.048Z,89.47
2023-01-27T11:45:35.490Z,89.11
2023-01-27T11:46:35.135Z,88.75
2023-01-27T11:47:39.032Z,87.09
2023-01-27T11:48:43.695Z,87.14
2023-01-27T11:49:44.973Z,87.28
2023-01-27T11:50:42.977Z,87.30
2023-01-27T11:51:40.384Z,87.50
2023-01-27T11:52:37.084Z,87.13
2023-01-27T11:53:40.006Z,87.34
2023-01-27T11:55:08.433Z,88.22
2023-01-27T11:56:16.063Z,89.10
2023-01-27T11:57:23.862Z,89.73
2023-01-27T11:58:30.334Z,89.75
2023-01-27T11:59:35.276Z,90.90
2023-01-27T12:00:43.077Z,91.48
2023-01-27T12:02:02.841Z,91.63
2023-01-27T12:03:19.978Z,92.32
2023-01-27T12:04:31.726Z,92.39
2023-01-27T12:05:34.132Z,92.58
2023-01-27T12:06:49.497Z,92.26
2023-01-27T12:08:01.938Z,92.00
2023-01-27T12:09:01.309Z,92.58
2023-01-27T12:09:58.892Z,92.76
2023-01-27T12:10:55.505Z,92.75
2023-01-27T12:12:11.454Z,92.84
2023-01-27T12:13:20.176Z,92.93
2023-01-27T12:14:16.776Z,93.23
2023-01-27T12:15:16.707Z,93.38
2023-01-27T12:16:13.963Z,92.56
2023-01-27T12:17:21.269Z,92.41
2023-01-27T12:18:17.971Z,92.01
2023-01-27T12:19:29.373Z,91.94
2023-01-27T12:20:34.410Z,92.05
2023-01-27T12:21:41.778Z,92.19
2023-01-27T12:22:40.623Z,91.58
2023-01-27T12:23:46.805Z,91.45
2023-01-27T12:24:49.958Z,92.01
2023-01-27T12:25:53.325Z,92.21
2023-01-27T12:26:52.383Z,91.95
2023-01-27T12:27:56.992Z,92.30
2023-01-27T12:28:54.350Z,92.17
2023-01-27T12:29:55.626Z,92.32
2023-01-27T12:30:55.920Z,92.78
2023-01-27T12:31:55.756Z,92.68
2023-01-27T12:32:54.199Z,92.21
2023-01-27T12:33:58.416Z,92.65
2023-01-27T12:34:56.520Z,92.66
2023-01-27T12:35:59.934Z,92.20
2023-01-27T12:36:58.323Z,91.91
2023-01-27T12:38:05.091Z,91.52
2023-01-27T12:39:02.853Z,91.63
2023-01-27T12:40:03.621Z,91.76
2023-01-27T12:41:04.221Z,91.82
2023-01-27T12:42:00.908Z,91.90
2023-01-27T12:43:03.451Z,91.84
2023-01-27T12:44:16.188Z,91.76
2023-01-27T12:45:25.557Z,91.90
2023-01-27T12:46:27.761Z,92.28
2023-01-27T12:47:26.620Z,92.45
2023-01-27T12:48:23.193Z,92.20
2023-01-27T12:49:20.920Z,91.76
2023-01-27T12:50:23.542Z,91.83
2023-01-27T12:51:22.189Z,91.89
2023-01-27T12:52:21.229Z,91.61
2023-01-27T12:53:20.244Z,91.22
2023-01-27T12:54:28.542Z,91.00
2023-01-27T12:55:36.146Z,90.31
2023-01-27T12:56:34.613Z,90.41
2023-01-27T12:57:33.081Z,89.28
2023-01-27T12:58:29.874Z,89.88
2023-01-27T12:59:27.218Z,90.06
2023-01-27T13:00:25.589Z,90.57
2023-01-27T13:01:30.356Z,90.98
2023-01-27T13:02:32.394Z,90.22
2023-01-27T13:03:29.909Z,89.73
2023-01-27T13:04:27.320Z,90.18
2023-01-27T13:05:24.691Z,90.46